sensor_id;sensor_type;location;lat;lon;timestamp;temperature;humidity
22984;DHT22;11658;48.908;9.140;2022-10-22T04:01:09;13.60;99.90
22984;DHT22;11658;48.908;9.140;2022-10-22T04:03:35;13.60;99.90
22984;DHT22;11658;48.908;9.140;2022-10-22T04:06:07;13.60;99.90
22984;DHT22;11658;48.908;9.140;2022-10-22T04:08:33;13.60;99.90
22984;DHT22;11658;48.908;9.140;2022-10-22T04:10:59;13.60;99.90
22984;DHT22;11658;48.908;9.140;2022-10-22T04:13:25;13.60;99.90
22984;DHT22;11658;48.908;9.140;2022-10-22T04:15:50;13.60;99.90
22984;DHT22;11658;48.908;9.140;2022-10-22T04:18:18;13.60;99.90
22984;DHT22;11658;48.908;9.140;2022-10-22T04:20:44;13.60;99.90
22984;DHT22;11658;48.908;9.140;2022-10-22T04:23:10;13.60;99.90
22984;DHT22;11658;48.908;9.140;2022-10-22T04:25:35;13.50;99.90
22984;DHT22;11658;48.908;9.140;2022-10-22T04:28:01;13.50;99.90
22984;DHT22;11658;48.908;9.140;2022-10-22T04:30:26;13.50;99.90
22984;DHT22;11658;48.908;9.140;2022-10-22T04:32:52;13.40;99.90
22984;DHT22;11658;48.908;9.140;2022-10-22T04:35:17;13.30;99.90
22984;DHT22;11658;48.908;9.140;2022-10-22T04:37:43;13.30;99.90
22984;DHT22;11658;48.908;9.140;2022-10-22T04:40:09;13.20;99.90
22984;DHT22;11658;48.908;9.140;2022-10-22T04:42:35;13.30;99.90
22984;DHT22;11658;48.908;9.140;2022-10-22T04:45:00;13.30;99.90
22984;DHT22;11658;48.908;9.140;2022-10-22T04:47:26;13.30;99.90
22984;DHT22;11658;48.908;9.140;2022-10-22T04:49:52;13.40;99.90
22984;DHT22;11658;48.908;9.140;2022-10-22T04:52:17;13.50;99.90
22984;DHT22;11658;48.908;9.140;2022-10-22T04:54:43;13.40;99.90
22984;DHT22;11658;48.908;9.140;2022-10-22T04:57:08;13.40;99.90
22984;DHT22;11658;48.908;9.140;2022-10-22T04:59:34;13.40;99.90
22984;DHT22;11658;48.908;9.140;2022-10-22T05:01:59;13.50;99.90
22984;DHT22;11658;48.908;9.140;2022-10-22T05:04:25;13.50;99.90
22984;DHT22;11658;48.908;9.140;2022-10-22T05:06:50;13.50;99.90
22984;DHT22;11658;48.908;9.140;2022-10-22T05:09:19;13.50;99.90
22984;DHT22;11658;48.908;9.140;2022-10-22T05:11:47;13.50;99.90
22984;DHT22;11658;48.908;9.140;2022-10-22T05:14:15;13.50;99.90
22984;DHT22;11658;48.908;9.140;2022-10-22T05:16:40;13.50;99.90
22984;DHT22;11658;48.908;9.140;2022-10-22T05:19:06;13.40;99.90
22984;DHT22;11658;48.908;9.140;2022-10-22T05:21:33;13.40;99.90
22984;DHT22;11658;48.908;9.140;2022-10-22T05:23:58;13.30;99.90
22984;DHT22;11658;48.908;9.140;2022-10-22T05:26:25;13.30;99.90
22984;DHT22;11658;48.908;9.140;2022-10-22T05:28:51;13.30;99.90
22984;DHT22;11658;48.908;9.140;2022-10-22T05:31:17;13.20;99.90
22984;DHT22;11658;48.908;9.140;2022-10-22T05:33:44;13.30;99.90
22984;DHT22;11658;48.908;9.140;2022-10-22T05:36:14;13.30;99.90
22984;DHT22;11658;48.908;9.140;2022-10-22T05:38:39;13.30;99.90
22984;DHT22;11658;48.908;9.140;2022-10-22T05:41:25;13.30;99.90
22984;DHT22;11658;48.908;9.140;2022-10-22T05:43:54;13.30;99.90
22984;DHT22;11658;48.908;9.140;2022-10-22T05:46:21;13.30;99.90
22984;DHT22;11658;48.908;9.140;2022-10-22T05:48:58;13.30;99.90
22984;DHT22;11658;48.908;9.140;2022-10-22T05:51:25;13.30;99.90
22984;DHT22;11658;48.908;9.140;2022-10-22T05:53:52;13.30;99.90
22984;DHT22;11658;48.908;9.140;2022-10-22T05:56:18;13.30;99.90
22984;DHT22;11658;48.908;9.140;2022-10-22T05:58:45;13.30;99.90
22984;DHT22;11658;48.908;9.140;2022-10-22T06:01:14;13.40;99.90
22984;DHT22;11658;48.908;9.140;2022-10-22T06:03:40;13.40;99.90
22984;DHT22;11658;48.908;9.140;2022-10-22T06:08:55;13.40;99.90
22984;DHT22;11658;48.908;9.140;2022-10-22T06:11:24;13.40;99.90
22984;DHT22;11658;48.908;9.140;2022-10-22T06:13:50;13.40;99.90
22984;DHT22;11658;48.908;9.140;2022-10-22T06:16:16;13.50;99.90
22984;DHT22;11658;48.908;9.140;2022-10-22T06:18:42;13.50;99.90
22984;DHT22;11658;48.908;9.140;2022-10-22T06:21:10;13.50;99.90
22984;DHT22;11658;48.908;9.140;2022-10-22T06:23:36;13.50;99.90
22984;DHT22;11658;48.908;9.140;2022-10-22T06:26:03;13.60;99.90
22984;DHT22;11658;48.908;9.140;2022-10-22T06:28:29;13.70;99.90
22984;DHT22;11658;48.908;9.140;2022-10-22T06:30:59;13.80;99.90
22984;DHT22;11658;48.908;9.140;2022-10-22T06:33:26;13.80;99.90
22984;DHT22;11658;48.908;9.140;2022-10-22T06:35:52;13.90;99.90
22984;DHT22;11658;48.908;9.140;2022-10-22T06:38:18;13.90;99.90
22984;DHT22;11658;48.908;9.140;2022-10-22T06:40:44;14.00;99.90
22984;DHT22;11658;48.908;9.140;2022-10-22T06:43:10;14.10;99.90
22984;DHT22;11658;48.908;9.140;2022-10-22T06:45:36;14.20;99.90
22984;DHT22;11658;48.908;9.140;2022-10-22T06:48:02;14.20;99.90
22984;DHT22;11658;48.908;9.140;2022-10-22T06:50:28;14.10;99.90
22984;DHT22;11658;48.908;9.140;2022-10-22T06:52:53;14.20;99.90
22984;DHT22;11658;48.908;9.140;2022-10-22T06:55:19;14.30;99.90
22984;DHT22;11658;48.908;9.140;2022-10-22T06:57:44;14.40;99.90
22984;DHT22;11658;48.908;9.140;2022-10-22T07:00:10;14.50;99.90
22984;DHT22;11658;48.908;9.140;2022-10-22T07:02:36;14.50;99.90
22984;DHT22;11658;48.908;9.140;2022-10-22T07:05:02;14.50;99.90
22984;DHT22;11658;48.908;9.140;2022-10-22T07:07:27;14.70;99.90
22984;DHT22;11658;48.908;9.140;2022-10-22T07:09:53;14.70;99.90
22984;DHT22;11658;48.908;9.140;2022-10-22T07:12:18;14.80;99.90
22984;DHT22;11658;48.908;9.140;2022-10-22T07:14:44;14.90;99.90
22984;DHT22;11658;48.908;9.140;2022-10-22T07:17:09;15.00;99.90
22984;DHT22;11658;48.908;9.140;2022-10-22T07:19:35;15.00;99.90
22984;DHT22;11658;48.908;9.140;2022-10-22T07:22:01;15.10;99.90
22984;DHT22;11658;48.908;9.140;2022-10-22T07:24:26;15.10;99.90
22984;DHT22;11658;48.908;9.140;2022-10-22T07:26:52;15.30;99.90
22984;DHT22;11658;48.908;9.140;2022-10-22T07:29:17;15.20;99.90
22984;DHT22;11658;48.908;9.140;2022-10-22T07:31:43;15.30;99.90
22984;DHT22;11658;48.908;9.140;2022-10-22T07:34:09;15.40;99.90
22984;DHT22;11658;48.908;9.140;2022-10-22T07:36:35;15.40;99.90
22984;DHT22;11658;48.908;9.140;2022-10-22T07:39:01;15.40;99.90
22984;DHT22;11658;48.908;9.140;2022-10-22T07:41:28;15.30;99.90
22984;DHT22;11658;48.908;9.140;2022-10-22T07:43:55;15.30;99.90
22984;DHT22;11658;48.908;9.140;2022-10-22T07:46:21;15.20;99.90
22984;DHT22;11658;48.908;9.140;2022-10-22T07:48:47;15.30;99.90
22984;DHT22;11658;48.908;9.140;2022-10-22T07:51:13;15.20;99.90
22984;DHT22;11658;48.908;9.140;2022-10-22T07:53:39;15.10;99.90
22984;DHT22;11658;48.908;9.140;2022-10-22T07:56:05;15.00;99.90
22984;DHT22;11658;48.908;9.140;2022-10-22T07:58:31;15.10;99.90
22984;DHT22;11658;48.908;9.140;2022-10-22T08:00:58;15.20;99.90
22984;DHT22;11658;48.908;9.140;2022-10-22T08:03:28;15.30;99.90
22984;DHT22;11658;48.908;9.140;2022-10-22T08:05:54;15.50;99.90
22984;DHT22;11658;48.908;9.140;2022-10-22T08:08:20;15.60;99.90
22984;DHT22;11658;48.908;9.140;2022-10-22T08:10:47;15.60;99.90
22984;DHT22;11658;48.908;9.140;2022-10-22T08:13:13;15.70;99.90
22984;DHT22;11658;48.908;9.140;2022-10-22T08:15:40;15.70;99.90
22984;DHT22;11658;48.908;9.140;2022-10-22T08:18:06;15.70;99.90
22984;DHT22;11658;48.908;9.140;2022-10-22T08:20:31;15.60;99.90
22984;DHT22;11658;48.908;9.140;2022-10-22T08:22:57;15.70;99.90
22984;DHT22;11658;48.908;9.140;2022-10-22T08:25:23;15.60;99.90
22984;DHT22;11658;48.908;9.140;2022-10-22T08:27:49;15.70;99.90
22984;DHT22;11658;48.908;9.140;2022-10-22T08:30:15;15.80;99.90
22984;DHT22;11658;48.908;9.140;2022-10-22T08:32:40;15.90;99.90
22984;DHT22;11658;48.908;9.140;2022-10-22T08:35:06;15.90;99.90
22984;DHT22;11658;48.908;9.140;2022-10-22T08:37:32;15.90;99.90
22984;DHT22;11658;48.908;9.140;2022-10-22T08:39:58;15.90;99.90
22984;DHT22;11658;48.908;9.140;2022-10-22T08:50:41;17.00;99.90
22984;DHT22;11658;48.908;9.140;2022-10-22T08:53:20;17.20;99.90
22984;DHT22;11658;48.908;9.140;2022-10-22T08:55:47;17.20;99.90
22984;DHT22;11658;48.908;9.140;2022-10-22T08:58:28;17.20;99.90
22984;DHT22;11658;48.908;9.140;2022-10-22T09:01:21;17.30;99.90
22984;DHT22;11658;48.908;9.140;2022-10-22T09:03:58;17.60;99.90
22984;DHT22;11658;48.908;9.140;2022-10-22T09:06:30;17.90;99.90
22984;DHT22;11658;48.908;9.140;2022-10-22T09:08:58;18.10;99.90
22984;DHT22;11658;48.908;9.140;2022-10-22T09:11:32;18.20;99.90
22984;DHT22;11658;48.908;9.140;2022-10-22T09:13:59;18.10;99.90
22984;DHT22;11658;48.908;9.140;2022-10-22T09:19:13;18.00;99.90
22984;DHT22;11658;48.908;9.140;2022-10-22T09:21:47;18.00;99.90
22984;DHT22;11658;48.908;9.140;2022-10-22T09:26:56;18.20;99.90
22984;DHT22;11658;48.908;9.140;2022-10-22T09:29:27;18.10;99.90
22984;DHT22;11658;48.908;9.140;2022-10-22T09:31:55;17.90;99.90
22984;DHT22;11658;48.908;9.140;2022-10-22T09:34:21;17.80;99.90
22984;DHT22;11658;48.908;9.140;2022-10-22T09:36:46;17.80;99.90
22984;DHT22;11658;48.908;9.140;2022-10-22T09:39:31;17.90;99.90
22984;DHT22;11658;48.908;9.140;2022-10-22T09:41:56;17.90;99.90
22984;DHT22;11658;48.908;9.140;2022-10-22T09:44:22;17.90;99.90
22984;DHT22;11658;48.908;9.140;2022-10-22T09:46:48;17.90;99.90
22984;DHT22;11658;48.908;9.140;2022-10-22T09:49:17;18.10;99.90
22984;DHT22;11658;48.908;9.140;2022-10-22T09:57:03;18.30;99.90
22984;DHT22;11658;48.908;9.140;2022-10-22T09:59:31;18.30;99.90
22984;DHT22;11658;48.908;9.140;2022-10-22T10:02:01;18.50;99.90
22984;DHT22;11658;48.908;9.140;2022-10-22T10:04:27;18.60;99.90
22984;DHT22;11658;48.908;9.140;2022-10-22T10:06:54;18.60;99.90
22984;DHT22;11658;48.908;9.140;2022-10-22T10:09:24;18.70;99.90
22984;DHT22;11658;48.908;9.140;2022-10-22T10:11:56;18.70;99.90
22984;DHT22;11658;48.908;9.140;2022-10-22T10:25:41;18.60;99.90
22984;DHT22;11658;48.908;9.140;2022-10-22T10:31:27;18.40;99.90
22984;DHT22;11658;48.908;9.140;2022-10-22T10:37:01;19.00;99.90
22984;DHT22;11658;48.908;9.140;2022-10-22T10:45:29;19.90;99.90
22984;DHT22;11658;48.908;9.140;2022-10-22T10:53:43;18.30;99.90
22984;DHT22;11658;48.908;9.140;2022-10-22T10:56:20;18.20;99.90
22984;DHT22;11658;48.908;9.140;2022-10-22T10:58:55;17.90;99.90
22984;DHT22;11658;48.908;9.140;2022-10-22T11:01:41;18.00;99.90
22984;DHT22;11658;48.908;9.140;2022-10-22T11:06:48;18.30;99.90
22984;DHT22;11658;48.908;9.140;2022-10-22T11:09:26;18.50;99.90
22984;DHT22;11658;48.908;9.140;2022-10-22T11:11:57;18.70;99.90
22984;DHT22;11658;48.908;9.140;2022-10-22T11:17:15;18.70;99.90
22984;DHT22;11658;48.908;9.140;2022-10-22T11:19:55;18.80;99.90
22984;DHT22;11658;48.908;9.140;2022-10-22T11:25:33;19.10;99.90
22984;DHT22;11658;48.908;9.140;2022-10-22T11:28:18;19.30;99.90
22984;DHT22;11658;48.908;9.140;2022-10-22T11:30:50;19.30;99.90
22984;DHT22;11658;48.908;9.140;2022-10-22T11:33:21;19.20;99.90
22984;DHT22;11658;48.908;9.140;2022-10-22T11:35:48;19.10;99.90
22984;DHT22;11658;48.908;9.140;2022-10-22T11:38:17;19.10;99.90
22984;DHT22;11658;48.908;9.140;2022-10-22T11:40:51;19.20;99.90
22984;DHT22;11658;48.908;9.140;2022-10-22T11:43:35;19.20;99.90
22984;DHT22;11658;48.908;9.140;2022-10-22T11:48:41;19.10;99.90
22984;DHT22;11658;48.908;9.140;2022-10-22T11:51:34;19.00;99.90
22984;DHT22;11658;48.908;9.140;2022-10-22T11:54:07;19.10;99.90
22984;DHT22;11658;48.908;9.140;2022-10-22T11:56:51;19.10;99.90
22984;DHT22;11658;48.908;9.140;2022-10-22T11:59:38;19.10;99.90
22984;DHT22;11658;48.908;9.140;2022-10-22T12:04:47;19.20;99.90
22984;DHT22;11658;48.908;9.140;2022-10-22T12:07:33;19.20;99.90
22984;DHT22;11658;48.908;9.140;2022-10-22T12:09:59;19.30;99.90
22984;DHT22;11658;48.908;9.140;2022-10-22T12:12:34;19.40;99.90
22984;DHT22;11658;48.908;9.140;2022-10-22T12:15:25;19.40;99.90
22984;DHT22;11658;48.908;9.140;2022-10-22T12:17:59;19.40;99.90
22984;DHT22;11658;48.908;9.140;2022-10-22T12:20:26;19.30;99.90
22984;DHT22;11658;48.908;9.140;2022-10-22T12:22:52;19.20;99.90
22984;DHT22;11658;48.908;9.140;2022-10-22T12:25:24;19.10;99.90
22984;DHT22;11658;48.908;9.140;2022-10-22T12:27:52;19.00;99.90
22984;DHT22;11658;48.908;9.140;2022-10-22T12:30:28;19.10;99.90
22984;DHT22;11658;48.908;9.140;2022-10-22T12:32:56;19.30;99.90
22984;DHT22;11658;48.908;9.140;2022-10-22T12:35:30;19.20;99.90
22984;DHT22;11658;48.908;9.140;2022-10-22T12:38:01;19.30;99.90
22984;DHT22;11658;48.908;9.140;2022-10-22T12:40:32;19.40;99.90
22984;DHT22;11658;48.908;9.140;2022-10-22T12:43:00;19.60;99.90
22984;DHT22;11658;48.908;9.140;2022-10-22T12:45:32;19.80;99.90
22984;DHT22;11658;48.908;9.140;2022-10-22T12:48:01;19.90;99.90
22984;DHT22;11658;48.908;9.140;2022-10-22T12:50:49;19.90;99.90
22984;DHT22;11658;48.908;9.140;2022-10-22T12:53:33;20.10;99.90
22984;DHT22;11658;48.908;9.140;2022-10-22T12:56:04;20.10;99.90
22984;DHT22;11658;48.908;9.140;2022-10-22T12:58:38;19.80;99.90
22984;DHT22;11658;48.908;9.140;2022-10-22T13:01:04;19.80;99.90
22984;DHT22;11658;48.908;9.140;2022-10-22T13:03:36;20.00;99.90
22984;DHT22;11658;48.908;9.140;2022-10-22T13:08:44;20.10;99.90
22984;DHT22;11658;48.908;9.140;2022-10-22T13:11:10;20.10;99.90
22984;DHT22;11658;48.908;9.140;2022-10-22T13:16:15;20.20;99.90
22984;DHT22;11658;48.908;9.140;2022-10-22T13:18:43;20.10;99.90
22984;DHT22;11658;48.908;9.140;2022-10-22T13:21:32;20.20;99.90
22984;DHT22;11658;48.908;9.140;2022-10-22T13:24:21;20.30;99.90
22984;DHT22;11658;48.908;9.140;2022-10-22T13:26:49;20.30;99.90
22984;DHT22;11658;48.908;9.140;2022-10-22T13:29:17;20.30;99.90
22984;DHT22;11658;48.908;9.140;2022-10-22T13:31:49;20.30;99.90
22984;DHT22;11658;48.908;9.140;2022-10-22T13:34:20;20.40;99.90
22984;DHT22;11658;48.908;9.140;2022-10-22T13:36:47;20.50;99.90
22984;DHT22;11658;48.908;9.140;2022-10-22T13:39:21;20.50;99.90
22984;DHT22;11658;48.908;9.140;2022-10-22T13:41:48;20.30;99.90
22984;DHT22;11658;48.908;9.140;2022-10-22T13:44:15;20.30;99.90
22984;DHT22;11658;48.908;9.140;2022-10-22T13:46:41;20.30;99.90
22984;DHT22;11658;48.908;9.140;2022-10-22T13:49:19;20.30;99.90
22984;DHT22;11658;48.908;9.140;2022-10-22T13:51:46;20.00;99.90
22984;DHT22;11658;48.908;9.140;2022-10-22T13:54:18;20.00;99.90
22984;DHT22;11658;48.908;9.140;2022-10-22T13:56:45;20.00;99.90
22984;DHT22;11658;48.908;9.140;2022-10-22T13:59:11;20.00;99.90
22984;DHT22;11658;48.908;9.140;2022-10-22T14:01:37;20.10;99.90
22984;DHT22;11658;48.908;9.140;2022-10-22T14:04:05;20.30;99.90
22984;DHT22;11658;48.908;9.140;2022-10-22T14:06:32;20.30;99.90
22984;DHT22;11658;48.908;9.140;2022-10-22T14:09:00;20.20;99.90
22984;DHT22;11658;48.908;9.140;2022-10-22T14:11:26;20.20;99.90
22984;DHT22;11658;48.908;9.140;2022-10-22T14:13:52;20.30;99.90
22984;DHT22;11658;48.908;9.140;2022-10-22T14:16:22;20.30;99.90
22984;DHT22;11658;48.908;9.140;2022-10-22T14:18:49;20.40;99.90
22984;DHT22;11658;48.908;9.140;2022-10-22T14:21:16;20.50;99.90
22984;DHT22;11658;48.908;9.140;2022-10-22T14:23:44;20.50;99.90
22984;DHT22;11658;48.908;9.140;2022-10-22T14:26:29;20.50;99.90
22984;DHT22;11658;48.908;9.140;2022-10-22T14:28:57;20.60;99.90
22984;DHT22;11658;48.908;9.140;2022-10-22T14:31:23;20.60;99.90
22984;DHT22;11658;48.908;9.140;2022-10-22T14:33:49;20.60;99.90
22984;DHT22;11658;48.908;9.140;2022-10-22T14:36:16;20.50;99.90
22984;DHT22;11658;48.908;9.140;2022-10-22T14:38:43;20.50;99.90
22984;DHT22;11658;48.908;9.140;2022-10-22T14:41:27;20.50;99.90
22984;DHT22;11658;48.908;9.140;2022-10-22T14:43:53;20.50;99.90
22984;DHT22;11658;48.908;9.140;2022-10-22T14:46:20;20.30;99.90
22984;DHT22;11658;48.908;9.140;2022-10-22T14:48:46;20.20;99.90
22984;DHT22;11658;48.908;9.140;2022-10-22T14:51:15;20.20;99.90
22984;DHT22;11658;48.908;9.140;2022-10-22T14:53:41;20.30;99.90
22984;DHT22;11658;48.908;9.140;2022-10-22T14:56:15;20.20;99.90
22984;DHT22;11658;48.908;9.140;2022-10-22T14:58:41;20.10;99.90
22984;DHT22;11658;48.908;9.140;2022-10-22T15:01:07;20.10;99.90
22984;DHT22;11658;48.908;9.140;2022-10-22T15:03:34;20.10;99.90
22984;DHT22;11658;48.908;9.140;2022-10-22T15:05:59;20.10;99.90
22984;DHT22;11658;48.908;9.140;2022-10-22T15:08:25;20.10;99.90
22984;DHT22;11658;48.908;9.140;2022-10-22T15:13:27;20.10;99.90
22984;DHT22;11658;48.908;9.140;2022-10-22T15:15:54;20.00;99.90
22984;DHT22;11658;48.908;9.140;2022-10-22T15:18:19;20.00;99.90
22984;DHT22;11658;48.908;9.140;2022-10-22T15:20:54;19.90;99.90
22984;DHT22;11658;48.908;9.140;2022-10-22T15:23:19;19.90;99.90
22984;DHT22;11658;48.908;9.140;2022-10-22T15:25:45;19.90;99.90
22984;DHT22;11658;48.908;9.140;2022-10-22T15:28:11;19.90;99.90
22984;DHT22;11658;48.908;9.140;2022-10-22T15:30:36;19.80;99.90
22984;DHT22;11658;48.908;9.140;2022-10-22T15:33:02;19.70;99.90
22984;DHT22;11658;48.908;9.140;2022-10-22T15:35:27;19.60;99.90
22984;DHT22;11658;48.908;9.140;2022-10-22T15:37:53;19.50;99.90
22984;DHT22;11658;48.908;9.140;2022-10-22T15:40:18;19.50;99.90
22984;DHT22;11658;48.908;9.140;2022-10-22T15:42:44;19.40;99.90
22984;DHT22;11658;48.908;9.140;2022-10-22T15:45:10;19.30;99.90
22984;DHT22;11658;48.908;9.140;2022-10-22T15:47:36;19.20;99.90
22984;DHT22;11658;48.908;9.140;2022-10-22T15:50:02;19.10;99.90
22984;DHT22;11658;48.908;9.140;2022-10-22T15:52:29;19.00;99.90
22984;DHT22;11658;48.908;9.140;2022-10-22T15:54:55;18.90;99.90
22984;DHT22;11658;48.908;9.140;2022-10-22T15:57:20;18.80;99.90
22984;DHT22;11658;48.908;9.140;2022-10-22T15:59:46;18.60;99.90
22984;DHT22;11658;48.908;9.140;2022-10-22T16:02:11;18.40;99.90
22984;DHT22;11658;48.908;9.140;2022-10-22T16:04:38;18.20;99.90
22984;DHT22;11658;48.908;9.140;2022-10-22T16:07:03;18.00;99.90
22984;DHT22;11658;48.908;9.140;2022-10-22T16:09:29;17.80;99.90
22984;DHT22;11658;48.908;9.140;2022-10-22T16:11:54;17.70;99.90
22984;DHT22;11658;48.908;9.140;2022-10-22T16:14:21;17.60;99.90
22984;DHT22;11658;48.908;9.140;2022-10-22T16:16:51;17.40;99.90
22984;DHT22;11658;48.908;9.140;2022-10-22T16:19:19;17.30;99.90
22984;DHT22;11658;48.908;9.140;2022-10-22T16:21:45;17.10;99.90
22984;DHT22;11658;48.908;9.140;2022-10-22T16:24:14;17.00;99.90
22984;DHT22;11658;48.908;9.140;2022-10-22T16:26:39;16.90;99.90
22984;DHT22;11658;48.908;9.140;2022-10-22T16:29:05;16.90;99.90
22984;DHT22;11658;48.908;9.140;2022-10-22T16:31:32;16.80;99.90
22984;DHT22;11658;48.908;9.140;2022-10-22T16:33:58;16.60;99.90
22984;DHT22;11658;48.908;9.140;2022-10-22T16:36:24;16.60;99.90
22984;DHT22;11658;48.908;9.140;2022-10-22T16:38:49;16.60;99.90
22984;DHT22;11658;48.908;9.140;2022-10-22T16:41:16;16.50;99.90
22984;DHT22;11658;48.908;9.140;2022-10-22T16:43:43;16.40;99.90
22984;DHT22;11658;48.908;9.140;2022-10-22T16:46:10;16.40;99.90
22984;DHT22;11658;48.908;9.140;2022-10-22T16:48:36;16.30;99.90
22984;DHT22;11658;48.908;9.140;2022-10-22T16:51:11;16.30;99.90
22984;DHT22;11658;48.908;9.140;2022-10-22T16:53:36;16.40;99.90
22984;DHT22;11658;48.908;9.140;2022-10-22T16:56:02;16.40;99.90
22984;DHT22;11658;48.908;9.140;2022-10-22T16:58:28;16.50;99.90
22984;DHT22;11658;48.908;9.140;2022-10-22T17:00:54;16.50;99.90
22984;DHT22;11658;48.908;9.140;2022-10-22T17:03:20;16.50;99.90
22984;DHT22;11658;48.908;9.140;2022-10-22T17:05:45;16.50;99.90
22984;DHT22;11658;48.908;9.140;2022-10-22T17:08:11;16.50;99.90
22984;DHT22;11658;48.908;9.140;2022-10-22T17:10:37;16.50;99.90
22984;DHT22;11658;48.908;9.140;2022-10-22T17:13:04;16.50;99.90
22984;DHT22;11658;48.908;9.140;2022-10-22T17:15:30;16.40;99.90
22984;DHT22;11658;48.908;9.140;2022-10-22T17:17:58;16.40;99.90
22984;DHT22;11658;48.908;9.140;2022-10-22T17:20:24;16.30;99.90
22984;DHT22;11658;48.908;9.140;2022-10-22T17:22:50;16.20;99.90
22984;DHT22;11658;48.908;9.140;2022-10-22T17:25:21;16.10;99.90
22984;DHT22;11658;48.908;9.140;2022-10-22T17:27:48;16.00;99.90
22984;DHT22;11658;48.908;9.140;2022-10-22T17:30:17;16.00;99.90
22984;DHT22;11658;48.908;9.140;2022-10-22T17:32:43;16.00;99.90
22984;DHT22;11658;48.908;9.140;2022-10-22T17:35:09;16.00;99.90
22984;DHT22;11658;48.908;9.140;2022-10-22T17:37:35;16.00;99.90
22984;DHT22;11658;48.908;9.140;2022-10-22T17:40:01;15.90;99.90
22984;DHT22;11658;48.908;9.140;2022-10-22T17:42:27;15.80;99.90
22984;DHT22;11658;48.908;9.140;2022-10-22T17:44:53;15.90;99.90
22984;DHT22;11658;48.908;9.140;2022-10-22T17:47:19;15.80;99.90
22984;DHT22;11658;48.908;9.140;2022-10-22T17:49:45;15.70;99.90
22984;DHT22;11658;48.908;9.140;2022-10-22T17:52:12;15.70;99.90
22984;DHT22;11658;48.908;9.140;2022-10-22T17:54:39;15.60;99.90
22984;DHT22;11658;48.908;9.140;2022-10-22T17:57:05;15.60;99.90
22984;DHT22;11658;48.908;9.140;2022-10-22T17:59:31;15.60;99.90
22984;DHT22;11658;48.908;9.140;2022-10-22T18:01:57;15.70;99.90
22984;DHT22;11658;48.908;9.140;2022-10-22T18:04:30;15.60;99.90
22984;DHT22;11658;48.908;9.140;2022-10-22T18:06:57;15.60;99.90
22984;DHT22;11658;48.908;9.140;2022-10-22T18:09:22;15.50;99.90
22984;DHT22;11658;48.908;9.140;2022-10-22T18:11:49;15.50;99.90
22984;DHT22;11658;48.908;9.140;2022-10-22T18:14:16;15.40;99.90
22984;DHT22;11658;48.908;9.140;2022-10-22T18:16:42;15.40;99.90
22984;DHT22;11658;48.908;9.140;2022-10-22T18:19:09;15.40;99.90
22984;DHT22;11658;48.908;9.140;2022-10-22T18:21:35;15.50;99.90
22984;DHT22;11658;48.908;9.140;2022-10-22T18:24:01;15.50;99.90
22984;DHT22;11658;48.908;9.140;2022-10-22T18:26:27;15.50;99.90
22984;DHT22;11658;48.908;9.140;2022-10-22T18:28:53;15.50;99.90
22984;DHT22;11658;48.908;9.140;2022-10-22T18:31:21;15.50;99.90
22984;DHT22;11658;48.908;9.140;2022-10-22T18:33:47;15.60;99.90
22984;DHT22;11658;48.908;9.140;2022-10-22T18:36:15;15.50;99.90
22984;DHT22;11658;48.908;9.140;2022-10-22T18:38:47;15.50;99.90
22984;DHT22;11658;48.908;9.140;2022-10-22T18:41:13;15.40;99.90
22984;DHT22;11658;48.908;9.140;2022-10-22T18:43:38;15.30;99.90
22984;DHT22;11658;48.908;9.140;2022-10-22T18:46:08;15.20;99.90
22984;DHT22;11658;48.908;9.140;2022-10-22T18:48:35;15.10;99.90
22984;DHT22;11658;48.908;9.140;2022-10-22T18:51:10;15.00;99.90
22984;DHT22;11658;48.908;9.140;2022-10-22T18:53:36;14.90;99.90
22984;DHT22;11658;48.908;9.140;2022-10-22T18:56:10;14.80;99.90
22984;DHT22;11658;48.908;9.140;2022-10-22T18:58:37;14.80;99.90
22984;DHT22;11658;48.908;9.140;2022-10-22T19:01:29;14.90;99.90
22984;DHT22;11658;48.908;9.140;2022-10-22T19:03:56;14.90;99.90
22984;DHT22;11658;48.908;9.140;2022-10-22T19:06:27;14.90;99.90
22984;DHT22;11658;48.908;9.140;2022-10-22T19:08:57;14.90;99.90
22984;DHT22;11658;48.908;9.140;2022-10-22T19:11:23;14.80;99.90
22984;DHT22;11658;48.908;9.140;2022-10-22T19:13:49;14.80;99.90
22984;DHT22;11658;48.908;9.140;2022-10-22T19:16:18;14.80;99.90
22984;DHT22;11658;48.908;9.140;2022-10-22T19:18:49;14.80;99.90
22984;DHT22;11658;48.908;9.140;2022-10-22T19:21:15;14.80;99.90
22984;DHT22;11658;48.908;9.140;2022-10-22T19:23:40;14.80;99.90
22984;DHT22;11658;48.908;9.140;2022-10-22T19:26:09;14.80;99.90
22984;DHT22;11658;48.908;9.140;2022-10-22T19:28:35;14.80;99.90
22984;DHT22;11658;48.908;9.140;2022-10-22T19:31:04;14.80;99.90
22984;DHT22;11658;48.908;9.140;2022-10-22T19:33:30;14.70;99.90
22984;DHT22;11658;48.908;9.140;2022-10-22T19:35:55;14.70;99.90
22984;DHT22;11658;48.908;9.140;2022-10-22T19:38:21;14.60;99.90
22984;DHT22;11658;48.908;9.140;2022-10-22T19:40:52;14.60;99.90
22984;DHT22;11658;48.908;9.140;2022-10-22T19:43:17;14.60;99.90
22984;DHT22;11658;48.908;9.140;2022-10-22T19:45:43;14.60;99.90
22984;DHT22;11658;48.908;9.140;2022-10-22T19:48:08;14.50;99.90
22984;DHT22;11658;48.908;9.140;2022-10-22T19:50:34;14.40;99.90
22984;DHT22;11658;48.908;9.140;2022-10-22T19:52:59;14.40;99.90
22984;DHT22;11658;48.908;9.140;2022-10-22T19:55:26;14.40;99.90
22984;DHT22;11658;48.908;9.140;2022-10-22T19:57:51;14.40;99.90
22984;DHT22;11658;48.908;9.140;2022-10-22T20:00:17;14.40;99.90
22984;DHT22;11658;48.908;9.140;2022-10-22T20:02:42;14.40;99.90
22984;DHT22;11658;48.908;9.140;2022-10-22T20:05:08;14.40;99.90
22984;DHT22;11658;48.908;9.140;2022-10-22T20:07:34;14.40;99.90
22984;DHT22;11658;48.908;9.140;2022-10-22T20:09:59;14.40;99.90
22984;DHT22;11658;48.908;9.140;2022-10-22T20:12:25;14.40;99.90
22984;DHT22;11658;48.908;9.140;2022-10-22T20:14:50;14.30;99.90
22984;DHT22;11658;48.908;9.140;2022-10-22T20:17:16;14.40;99.90
22984;DHT22;11658;48.908;9.140;2022-10-22T20:19:42;14.40;99.90
22984;DHT22;11658;48.908;9.140;2022-10-22T20:22:07;14.30;99.90
22984;DHT22;11658;48.908;9.140;2022-10-22T20:24:33;14.20;99.90
22984;DHT22;11658;48.908;9.140;2022-10-22T20:26:59;14.20;99.90
22984;DHT22;11658;48.908;9.140;2022-10-22T20:29:24;14.10;99.90
22984;DHT22;11658;48.908;9.140;2022-10-22T20:31:50;14.10;99.90
22984;DHT22;11658;48.908;9.140;2022-10-22T20:34:16;14.10;99.90
22984;DHT22;11658;48.908;9.140;2022-10-22T20:36:41;14.10;99.90
22984;DHT22;11658;48.908;9.140;2022-10-22T20:39:11;14.10;99.90
22984;DHT22;11658;48.908;9.140;2022-10-22T20:41:37;14.10;99.90
22984;DHT22;11658;48.908;9.140;2022-10-22T20:44:06;14.10;99.90
22984;DHT22;11658;48.908;9.140;2022-10-22T20:46:33;14.10;99.90
22984;DHT22;11658;48.908;9.140;2022-10-22T20:49:00;14.10;99.90